Home > Products > Valid Products > TAF

000
FTUS43 KGRR 012000 AAB
TAFBTL
TAF AMD
KBTL 012001Z 0120/0218 22014G26KT 1SM +RA BR BKN025
     FM012030 25012G20KT P6SM SCT025 BKN035
     FM020000 24010KT P6SM BKN025
     FM020700 28005KT P6SM BKN050=



000
FTUS43 KGRR 011900 AAB
TAFAZO
TAF AMD
KAZO 011952Z 0120/0218 26012G20KT P6SM SCT025 BKN035
     FM020000 24010KT 6SM HZ VCSH BKN025
     FM020700 28005KT P6SM BKN050=



000
FTUS43 KGRR 011900 AAB
TAFLAN
TAF AMD
KLAN 011940Z 0120/0218 21015G28KT 3SM RA BR BKN025 OVC040
     FM012100 24012G18KT P6SM VCSH BKN025
     FM020700 28005KT P6SM BKN050=



000
FTUS43 KGRR 011900 AAD
TAFGRR
TAF AMD
KGRR 011907Z 0119/0218 23015G25KT P6SM SCT015 BKN025
     FM012300 24010KT P6SM VCSH BKN025
     FM020700 28005KT P6SM BKN050=



000
FTUS43 KGRR 011900 AAB
TAFMKG
TAF AMD
KMKG 011903Z 0119/0218 21014G22KT P6SM FEW025
     FM012300 24010G18KT P6SM VCSH BKN025
     FM020700 28005KT P6SM BKN050=



000
FTUS43 KGRR 011800 AAA
TAFLAN
TAF AMD
KLAN 011823Z 0118/0218 19016G25KT P6SM SCT025 BKN040
      TEMPO 0119/0121 3SM -TSRA BR OVC015CB
     FM012100 24012G18KT 6SM HZ VCSH BKN025
     FM020700 28005KT P6SM BKN050=



000
FTUS43 KGRR 011800 AAA
TAFBTL
TAF AMD
KBTL 011823Z 0118/0218 20015KT P6SM VCTS SCT025CB OVC040
      TEMPO 0118/0120 4SM -TSRA BR OVC015CB
     FM012100 24012G18KT 6SM HZ VCSH BKN025
     FM020700 28005KT P6SM BKN050=



000
FTUS43 KGRR 011800 AAC
TAFGRR
TAF AMD
KGRR 011823Z 0118/0218 22015G24KT 3SM -TSRA BR BKN025CB OVC035
     FM011900 23012G20KT P6SM BKN015 OVC040
     FM012000 24012G18KT 6SM HZ VCSH BKN025
     FM020700 28005KT P6SM BKN050=



000
FTUS43 KGRR 011800 AAA
TAFJXN
TAF AMD
KJXN 011823Z 0118/0218 18014G23KT P6SM BKN025 OVC050
      TEMPO 0119/0121 3SM -TSRA BR OVC015CB
     FM012100 24012G18KT 6SM HZ VCSH BKN025
     FM020700 28005KT P6SM BKN050=



000
FTUS43 KGRR 011800 AAA
TAFMKG
TAF AMD
KMKG 011823Z 0118/0218 23011G20KT P6SM -RA SCT008 OVC080
      TEMPO 0118/0119 4SM RA BR OVC008
     FM012100 24012G18KT 6SM HZ VCSH BKN020
     FM020700 28005KT P6SM BKN050=



000
FTUS43 KGRR 011800 AAA
TAFAZO
TAF AMD
KAZO 011823Z 0118/0218 20016G26KT P6SM VCTS BKN025CB OVC050
      TEMPO 0118/0120 4SM -TSRA BR OVC010CB
     FM012100 24012G18KT 6SM HZ VCSH BKN025
     FM020700 28005KT P6SM BKN050=



000
FTUS43 KGRR 011700 AAB
TAFGRR
TAF AMD
KGRR 011755Z 0118/0218 21012G22KT P6SM VCTS BKN025CB
      TEMPO 0118/0121 3/4SM TSRA BR OVC010CB
     FM012100 24012G18KT 6SM HZ VCSH BKN025
     FM020700 28005KT P6SM BKN050=



000
FTUS43 KGRR 011700 AAA
TAFGRR
TAF AMD
KGRR 011742Z 0118/0218 21012G22KT P6SM VCTS BKN025CB
      TEMPO 0118/0121 1 1/2SM -TSRA BR OVC010CB
     FM012100 24012G18KT 6SM HZ VCSH BKN025
     FM020700 28005KT P6SM BKN050=



000
FTUS43 KGRR 011700
TAFBTL
TAF
KBTL 011740Z 0118/0218 21014G24KT P6SM VCTS BKN035CB
      TEMPO 0118/0121 4SM -TSRA BR OVC015CB
     FM012100 24012G18KT 6SM HZ VCSH BKN025
     FM020700 28005KT P6SM BKN050=



000
FTUS43 KGRR 011700
TAFLAN
TAF
KLAN 011740Z 0118/0218 19012G22KT P6SM VCTS BKN025CB
      TEMPO 0119/0122 3SM -TSRA BR OVC010CB
     FM012200 24012G18KT 6SM HZ VCSH BKN025
     FM020700 28005KT P6SM BKN050=



000
FTUS43 KGRR 011700
TAFJXN
TAF
KJXN 011740Z 0118/0218 19012G22KT P6SM VCTS BKN025CB
      TEMPO 0119/0123 3SM -TSRA BR OVC010CB
     FM012300 24012G18KT 6SM HZ VCSH BKN025
     FM020700 28005KT P6SM BKN050=



000
FTUS43 KGRR 011700
TAFGRR
TAF
KGRR 011740Z 0118/0218 21012G22KT P6SM VCTS BKN025CB
      TEMPO 0118/0121 4SM -TSRA BR OVC010CB
     FM012100 24012G18KT 6SM HZ VCSH BKN025
     FM020700 28005KT P6SM BKN050=



000
FTUS43 KGRR 011700
TAFMKG
TAF
KMKG 011740Z 0118/0218 24012G20KT P6SM VCTS BKN015CB
      TEMPO 0118/0121 4SM -SHRA BR OVC008
     FM012100 24012G18KT 6SM HZ VCSH BKN020
     FM020700 28005KT P6SM BKN050=



000
FTUS43 KGRR 011700
TAFAZO
TAF
KAZO 011740Z 0118/0218 21012G22KT P6SM VCTS BKN025CB
      TEMPO 0118/0121 4SM -TSRA BR OVC010CB
     FM012100 24012G18KT 6SM HZ VCSH BKN025
     FM020700 28005KT P6SM BKN050=



000
FTUS43 KGRR 011600 AAB
TAFBTL
TAF AMD
KBTL 011642Z 0117/0212 20012G20KT P6SM VCTS BKN015CB
      TEMPO 0118/0122 2SM TSRA BR OVC010CB
     FM012300 24011KT P6SM BKN040
     FM020500 27006KT P6SM BKN025=



000
FTUS43 KGRR 011600 AAD
TAFAZO
TAF AMD
KAZO 011640Z 0117/0212 20014G24KT P6SM VCTS BKN025CB
      TEMPO 0117/0121 2SM TSRA BR OVC010CB
     FM012300 24011KT P6SM BKN040
     FM020500 27006KT P6SM BKN025=



000
FTUS43 KGRR 011600 AAB
TAFGRR
TAF AMD
KGRR 011639Z 0117/0212 21014G20KT P6SM VCTS BKN015CB
      TEMPO 0117/0121 2SM TSRA BR OVC010CB
     FM012300 24011KT P6SM BKN040
     FM020500 27006KT P6SM BKN025=



000
FTUS43 KGRR 011600 AAB
TAFMKG
TAF AMD
KMKG 011627Z 0116/0212 20012G20KT P6SM VCTS BKN015CB
      TEMPO 0116/0120 1 1/2SM TSRA BR OVC010CB
     FM012300 22011KT P6SM BKN040
     FM020500 27006KT P6SM BKN025=



000
FTUS43 KGRR 011600 AAC
TAFLAN
TAF AMD
KLAN 011625Z 0116/0212 19010G18KT P6SM VCTS BKN025CB
     FM012300 24011KT P6SM BKN040
     FM020500 27006KT P6SM BKN025=



000
FTUS43 KGRR 011600 AAA
TAFGRR
TAF AMD
KGRR 011606Z 0116/0212 18014G20KT P6SM VCTS BKN015CB
     FM012300 24011KT P6SM BKN040
     FM020500 27006KT P6SM BKN025=



000
FTUS43 KGRR 011500 AAC
TAFAZO
TAF AMD
KAZO 011558Z 0116/0212 19014G24KT P6SM VCTS BKN025CB
     FM011800 20014G24KT P6SM VCTS BKN035CB
     FM012300 24011KT P6SM BKN040
     FM020500 27006KT P6SM BKN025=



000
FTUS43 KGRR 011500 AAB
TAFAZO
TAF AMD
KAZO 011505Z 0115/0212 19012KT 6SM HZ VCSH BKN015
     FM011800 22014G24KT P6SM VCTS BKN035CB
     FM012300 24011KT P6SM BKN040
     FM020500 27006KT P6SM BKN025=



000
FTUS43 KGRR 011500 AAA
TAFMKG
TAF AMD
KMKG 011504Z 0115/0212 18012G20KT P6SM VCSH BKN015
     FM011800 21013G24KT P6SM VCTS BKN035CB
     FM012300 22011KT P6SM BKN040
     FM020500 27006KT P6SM BKN025=



000
FTUS43 KGRR 011400 AAB
TAFLAN
TAF AMD
KLAN 011425Z 0114/0212 19010KT 6SM BR OVC008
     FM011530 19012G23KT 6SM HZ VCSH BKN010
     FM011700 22014G24KT P6SM VCTS BKN035CB
     FM012300 24011KT P6SM BKN040
     FM020500 27006KT P6SM BKN025=



000
FTUS43 KGRR 011400 AAA
TAFBTL
TAF AMD
KBTL 011424Z 0114/0212 19010KT 5SM BR OVC006
     FM011600 19012G23KT 6SM HZ VCTS BKN010CB
     FM011800 22014G24KT P6SM VCTS BKN035CB
     FM012300 24011KT P6SM BKN040
     FM020500 27006KT P6SM BKN025=



000
FTUS43 KGRR 011400 AAA
TAFAZO
TAF AMD
KAZO 011424Z 0114/0212 19012KT 4SM BR OVC006
     FM011600 19012G23KT 6SM HZ VCTS BKN010CB
     FM011800 22014G24KT P6SM VCTS BKN035CB
     FM012300 24011KT P6SM BKN040
     FM020500 27006KT P6SM BKN025=



000
FTUS43 KGRR 011300 AAA
TAFJXN
TAF AMD
KJXN 011348Z 0114/0212 19010KT P6SM BKN007
     FM011500 19012G23KT 6SM HZ VCTS BKN010CB
     FM011700 22014G24KT P6SM VCTS BKN035CB
     FM012300 24011KT P6SM BKN040
     FM020500 27006KT P6SM BKN025=



000
FTUS43 KGRR 011300 AAA
TAFLAN
TAF AMD
KLAN 011348Z 0114/0212 19010KT 5SM BR OVC005
     FM011500 19012G23KT 6SM HZ VCSH BKN010
     FM011700 22014G24KT P6SM VCTS BKN035CB
     FM012300 24011KT P6SM BKN040
     FM020500 27006KT P6SM BKN025=



000
FTUS43 KGRR 011100 RRA
TAFAZO
TAF
KAZO 011144Z 0112/0212 18010KT 4SM BR OVC005
     FM011400 19012G23KT 6SM HZ VCTS BKN010CB
     FM011600 22014G24KT P6SM VCTS BKN035CB
     FM012300 24011KT P6SM BKN040
     FM020500 27006KT P6SM BKN025=



000
FTUS43 KGRR 011100 RRA
TAFLAN
TAF
KLAN 011144Z 0112/0212 19010KT 3SM BR OVC006
     FM011400 19012G23KT 6SM HZ VCSH BKN010
     FM011600 22014G24KT P6SM VCTS BKN035CB
     FM012300 24011KT P6SM BKN040
     FM020500 27006KT P6SM BKN025=



000
FTUS43 KGRR 011100 RRA
TAFBTL
TAF
KBTL 011144Z 0112/0212 19010KT 4SM BR OVC005
     FM011400 19012G23KT 6SM HZ VCTS BKN010CB
     FM011600 22014G24KT P6SM VCTS BKN035CB
     FM012300 24011KT P6SM BKN040
     FM020500 27006KT P6SM BKN025=



000
FTUS43 KGRR 011100 RRA
TAFJXN
TAF
KJXN 011144Z 0112/0212 19010KT 4SM BR BKN005
     FM011400 19012G23KT 6SM HZ VCTS BKN010CB
     FM011600 22014G24KT P6SM VCTS BKN035CB
     FM012300 24011KT P6SM BKN040
     FM020500 27006KT P6SM BKN025=



000
FTUS43 KGRR 011100 RRA
TAFGRR
TAF
KGRR 011144Z 0112/0212 18010KT 5SM BR SCT008 BKN100
     FM011400 19012G23KT P6SM VCSH BKN012
     FM011600 22014G24KT P6SM VCTS BKN035CB
     FM012300 24011KT P6SM BKN040
     FM020500 27006KT P6SM BKN025=



000
FTUS43 KGRR 011100 RRA
TAFMKG
TAF
KMKG 011144Z 0112/0212 18012G19KT P6SM VCSH BKN010
     FM011500 20013G24KT P6SM VCTS BKN015CB
     FM011800 21013G24KT P6SM VCTS BKN035CB
     FM012300 22011KT P6SM BKN040
     FM020500 27006KT P6SM BKN025=



000
FTUS43 KGRR 010900 AAB
TAFLAN
TAF AMD
KLAN 010902Z 0109/0206 18006KT 5SM BR SCT025
      TEMPO 0109/0112 2SM BR BKN010
     FM011800 20014G24KT 3SM -TSRA BR BKN025CB
     FM012200 21012G22KT P6SM SCT050 BKN100
     FM020200 23008KT P6SM VCSH BKN050=



000
FTUS43 KGRR 010900 AAB
TAFGRR
TAF AMD
KGRR 010901Z 0109/0206 15007KT 3SM BR FEW015
     FM011600 19014G24KT 4SM -SHRA BR VCTS SCT045CB BKN100
     FM012000 21012G22KT P6SM SCT050 BKN100
     FM020000 23010KT P6SM VCSH SCT050 BKN100=



000
FTUS43 KGRR 010800 AAA
TAFJXN
TAF AMD
KJXN 010806Z 0108/0206 18005KT P6SM FEW035
     FM011000 17007KT 6SM HZ FEW015
      TEMPO 0110/0112 2SM BR BKN010
     FM011800 20014G24KT 3SM -TSRA BR BKN025CB
     FM012200 21012G22KT P6SM SCT050 BKN100
     FM020200 23008KT P6SM VCSH BKN050=



000
FTUS43 KGRR 010800 AAA
TAFLAN
TAF AMD
KLAN 010806Z 0108/0206 18006KT P6SM SCT035
     FM010900 17007KT 6SM HZ SCT025
      TEMPO 0109/0112 2SM BR BKN010
     FM011800 20014G24KT 3SM -TSRA BR BKN025CB
     FM012200 21012G22KT P6SM SCT050 BKN100
     FM020200 23008KT P6SM VCSH BKN050=



000
FTUS43 KGRR 010800 AAA
TAFGRR
TAF AMD
KGRR 010804Z 0108/0206 16007KT P6SM FEW025
     FM011000 17007KT 3SM BR FEW015
     FM011600 19014G24KT 4SM -SHRA BR VCTS SCT045CB BKN100
     FM012000 21012G22KT P6SM SCT050 BKN100
     FM020000 23010KT P6SM VCSH SCT050 BKN100=



000
FTUS43 KGRR 010800 AAA
TAFBTL
TAF AMD
KBTL 010804Z 0108/0206 19007KT 5SM HZ FEW015
      TEMPO 0108/0112 2SM BR BKN010
     FM011700 20014G24KT 3SM -TSRA BR BKN025CB
     FM012100 21012G22KT P6SM SCT050 BKN100
     FM020100 23008KT P6SM VCSH BKN050=



000
FTUS43 KGRR 010700 AAA
TAFAZO
TAF AMD
KAZO 010715Z 0107/0206 18007KT 4SM BR FEW015
     FM011600 20014G24KT 4SM -SHRA VCTS SCT045CB BKN100
     FM012000 21012G22KT P6SM SCT050 BKN100
     FM020000 23008KT P6SM VCSH SCT050 BKN100=



000
FTUS43 KGRR 010500
TAFLAN
TAF
KLAN 010540Z 0106/0206 VRB03KT P6SM SKC
     FM010700 17007KT 6SM HZ FEW015
      TEMPO 0108/0112 2SM BR BKN010
     FM011800 20014G24KT 3SM -TSRA BR BKN025CB
     FM012200 21012G22KT P6SM SCT050 BKN100
     FM020200 23008KT P6SM VCSH BKN050=



000
FTUS43 KGRR 010500
TAFBTL
TAF
KBTL 010540Z 0106/0206 16004KT P6SM SKC
     FM010800 17007KT 6SM HZ FEW015
      TEMPO 0108/0112 2SM BR BKN010
     FM011700 20014G24KT 3SM -TSRA BR BKN025CB
     FM012100 21012G22KT P6SM SCT050 BKN100
     FM020100 23008KT P6SM VCSH BKN050=



000
FTUS43 KGRR 010500
TAFJXN
TAF
KJXN 010540Z 0106/0206 VRB03KT P6SM FEW035
     FM010700 17007KT 6SM HZ FEW015
      TEMPO 0108/0112 2SM BR BKN010
     FM011800 20014G24KT 3SM -TSRA BR BKN025CB
     FM012200 21012G22KT P6SM SCT050 BKN100
     FM020200 23008KT P6SM VCSH BKN050=



000
FTUS43 KGRR 010500
TAFAZO
TAF
KAZO 010540Z 0106/0206 16004KT P6SM SKC
     FM010800 17007KT 3SM BR FEW015
     FM011600 20014G24KT 4SM -SHRA VCTS SCT045CB BKN100
     FM012000 21012G22KT P6SM SCT050 BKN100
     FM020000 23008KT P6SM VCSH SCT050 BKN100=



000
FTUS43 KGRR 010500
TAFGRR
TAF
KGRR 010540Z 0106/0206 16007KT P6SM SKC
     FM010800 17007KT 3SM BR FEW015
     FM011600 19014G24KT 4SM -SHRA BR VCTS SCT045CB BKN100
     FM012000 21012G22KT P6SM SCT050 BKN100
     FM020000 23010KT P6SM VCSH SCT050 BKN100=



000
FTUS43 KGRR 010500
TAFMKG
TAF
KMKG 010540Z 0106/0206 15007KT P6SM SKC
     FM011000 17007KT 6SM HZ FEW015
     FM011500 19014G24KT 4SM -SHRA BR VCTS SCT045CB BKN100
     FM011900 21014G24KT P6SM SCT050 BKN100
     FM012300 23010KT P6SM VCSH SCT050 BKN100=



000
FTUS43 KGRR 010400 AAA
TAFJXN
TAF AMD
KJXN 010401Z 0104/0124 20004KT P6SM SCT040
     FM010600 19003KT 4SM BR SCT035
     FM011400 20013KT 6SM HZ BKN025
     FM011800 21014G24KT P6SM VCTS BKN040CB=



000
FTUS43 KGRR 010400 AAB
TAFBTL
TAF AMD
KBTL 010401Z 0104/0124 VRB03KT P6SM SKC
     FM010800 VRB03KT 2SM BR SKC
     FM011400 20012KT 6SM BR BKN025
     FM011700 21015G23KT P6SM VCTS BKN040CB=



000
FTUS43 KGRR 010200 AAA
TAFBTL
TAF AMD
KBTL 010211Z 0102/0124 VRB03KT 4SM BR SKC
     FM010500 VRB03KT 2SM BR SKC
     FM011400 20012KT 6SM BR BKN025
     FM011700 21015G23KT P6SM VCTS BKN040CB=



000
FTUS43 KGRR 312300
TAFBTL
TAF
KBTL 312340Z 0100/0124 23005KT P6SM SCT050
     FM011400 20012KT 6SM BR BKN025
     FM011700 21015G23KT P6SM VCTS BKN040CB=



000
FTUS43 KGRR 312300
TAFLAN
TAF
KLAN 312340Z 0100/0124 21004KT P6SM VCSH BKN040
     FM010200 18002KT 6SM BR SCT040
     FM011300 20013KT 6SM HZ BKN025
     FM011800 21015G23KT P6SM VCTS BKN040CB=



000
FTUS43 KGRR 312300
TAFMKG
TAF
KMKG 312340Z 0100/0124 20005KT P6SM FEW050
     FM011200 18015KT 6SM BR BKN025
     FM011500 18016G25KT P6SM VCTS BKN040CB=



000
FTUS43 KGRR 312300
TAFAZO
TAF
KAZO 312340Z 0100/0124 23005KT P6SM SCT050
     FM011400 20012KT 6SM BR BKN025
     FM011700 21015G23KT P6SM VCTS BKN040CB=



000
FTUS43 KGRR 312300
TAFJXN
TAF
KJXN 312340Z 0100/0124 20004KT P6SM VCSH BKN040
     FM010400 19003KT 4SM BR SCT035
     FM011400 20013KT 6SM HZ BKN025
     FM011800 21014G24KT P6SM VCTS BKN040CB=



000
FTUS43 KGRR 312300
TAFGRR
TAF
KGRR 312340Z 0100/0124 20006KT P6SM FEW050
     FM011000 18007KT 6SM BR BKN015
     FM011400 20015G24KT P6SM VCTS BKN040CB=



000
FTUS43 KGRR 312200 AAA
TAFLAN
TAF AMD
KLAN 312215Z 3122/0118 21004KT P6SM VCSH BKN040
     FM010200 18002KT 6SM BR BKN025
     FM011300 20013KT 6SM HZ BKN025=



000
FTUS43 KGRR 311700
TAFMKG
TAF
KMKG 311733Z 3118/0118 24008KT P6SM BKN040
      TEMPO 3118/3120 BKN025
     FM312100 20005KT P6SM SCT040
     FM011200 18015KT 6SM BR BKN025
     FM011500 18016G22KT P6SM VCTS BKN040CB=



000
FTUS43 KGRR 311700
TAFLAN
TAF
KLAN 311733Z 3118/0118 24006KT P6SM BKN040
      TEMPO 3118/3119 BKN025
     FM312215 21004KT P6SM VCTS BKN040CB
     FM010300 18002KT 6SM BR BKN025
     FM011300 20013KT 6SM HZ BKN025=



000
FTUS43 KGRR 311700
TAFAZO
TAF
KAZO 311733Z 3118/0118 23005KT P6SM BKN040
      TEMPO 3118/3120 BKN025
     FM011400 20012KT 6SM BR BKN025
     FM011700 21013G19KT P6SM VCTS BKN040CB=



000
FTUS43 KGRR 311700
TAFGRR
TAF
KGRR 311733Z 3118/0118 24006KT P6SM BKN040
     FM312215 20006KT P6SM SCT040
     FM011000 18007KT 6SM BR BKN015
     FM011400 20015G21KT P6SM VCTS BKN040CB=



000
FTUS43 KGRR 311700
TAFBTL
TAF
KBTL 311733Z 3118/0118 23005KT P6SM BKN040
      TEMPO 3118/3121 BKN025
     FM011300 20013KT 6SM BR BKN025
     FM011700 21014G20KT P6SM VCTS BKN040CB=



000
FTUS43 KGRR 311700
TAFJXN
TAF
KJXN 311733Z 3118/0118 24006KT P6SM BKN040
      TEMPO 3118/3120 BKN025
     FM312115 20004KT P6SM VCTS BKN040CB
     FM010400 19003KT 4SM BR BKN015
     FM011400 20013KT 6SM HZ BKN025=



000
FTUS43 KGRR 311600 AAB
TAFBTL
TAF AMD
KBTL 311608Z 3116/0112 21007KT P6SM SCT025
      TEMPO 3116/3119 BKN025
     FM311900 25008KT P6SM VCSH BKN035
     FM010000 VRB03KT P6SM SKC=



000
FTUS43 KGRR 311600 AAC
TAFAZO
TAF AMD
KAZO 311607Z 3116/0112 22006KT P6SM SCT025
      TEMPO 3116/3119 BKN025
     FM010000 VRB03KT P6SM SKC
     FM010500 19002KT 5SM BR SKC=



000
FTUS43 KGRR 311600 AAB
TAFMKG
TAF AMD
KMKG 311605Z 3116/0112 25005KT P6SM BKN015
      TEMPO 3116/3118 SCT015
     FM311800 25008KT P6SM BKN035
     FM010000 VRB03KT P6SM SKC=



000
FTUS43 KGRR 311400 AAB
TAFLAN
TAF AMD
KLAN 311440Z 3115/0112 24006KT P6SM SCT008 OVC015
      TEMPO 3115/3116 BKN008
     FM311600 23005KT 6SM HZ BKN015
     FM311800 25008KT P6SM VCSH BKN035
     FM010000 VRB03KT P6SM SKC=



000
FTUS43 KGRR 311400 AAA
TAFMKG
TAF AMD
KMKG 311435Z 3115/0112 22004KT P6SM SCT005
      TEMPO 3115/3116 BKN005
     FM311600 23005KT 6SM HZ BKN025
     FM311800 25008KT P6SM BKN035
     FM010000 VRB03KT P6SM SKC=



000
FTUS43 KGRR 311300 AAB
TAFAZO
TAF AMD
KAZO 311343Z 3114/0112 23005KT 5SM BR BKN007
     FM311600 25008KT P6SM VCSH BKN035
     FM010000 VRB03KT P6SM SKC
     FM010500 19002KT 5SM BR SKC=



000
FTUS43 KGRR 311300 AAB
TAFJXN
TAF AMD
KJXN 311341Z 3114/0112 26003KT P6SM BKN008
     FM311600 23005KT 6SM HZ BKN015
     FM311800 25008KT P6SM VCSH BKN035
     FM010000 VRB03KT P6SM SKC=



000
FTUS43 KGRR 311300 AAA
TAFGRR
TAF AMD
KGRR 311340Z 3114/0112 24007KT 5SM BR OVC006
     FM311530 VRB03KT 5SM BR BKN015
     FM311630 23005KT 6SM HZ BKN025
     FM311800 25008KT P6SM BKN035
     FM010000 VRB03KT P6SM SKC=



000
FTUS43 KGRR 311200 AAA
TAFJXN
TAF AMD
KJXN 311218Z 3112/0112 25004KT 4SM BR SKC
     FM311400 VRB03KT 5SM BR BKN008
     FM311600 23005KT 6SM HZ BKN015
     FM311800 25008KT P6SM VCSH BKN035
     FM010000 VRB03KT P6SM SKC=



000
FTUS43 KGRR 311200 AAA
TAFBTL
TAF AMD
KBTL 311217Z 3112/0112 VRB03KT P6SM BKN006
     FM311600 23005KT 6SM HZ BKN015
     FM311800 25008KT P6SM VCSH BKN035
     FM010000 VRB03KT P6SM SKC=



000
FTUS43 KGRR 311200 AAA
TAFLAN
TAF AMD
KLAN 311217Z 3112/0112 25003KT 5SM BR BKN007
     FM311600 23005KT 6SM HZ BKN015
     FM311800 25008KT P6SM VCSH BKN035
     FM010000 VRB03KT P6SM SKC=



000
FTUS43 KGRR 311100 AAA
TAFAZO
TAF AMD
KAZO 311142Z 3112/0112 22004KT 5SM BR FEW010 BKN025
     FM311300 23005KT 5SM BR BKN015
     FM311800 25008KT P6SM VCSH BKN035
     FM010000 VRB03KT P6SM SKC
     FM010500 19002KT 5SM BR SKC=



000
FTUS43 KGRR 311100
TAFAZO
TAF
KAZO 311123Z 3112/0112 22004KT P6SM SCT035 SCT050
     FM311400 23005KT 5SM BR BKN015
     FM311800 25008KT P6SM VCSH BKN035
     FM010000 VRB03KT P6SM SKC
     FM010500 19002KT 5SM BR SKC=



000
FTUS43 KGRR 311100
TAFBTL
TAF
KBTL 311123Z 3112/0112 22004KT P6SM SCT035 SCT050
     FM311400 VRB03KT 5SM BR BKN008
     FM311600 23005KT 6SM HZ BKN015
     FM311800 25008KT P6SM VCSH BKN035
     FM010000 VRB03KT P6SM SKC=



000
FTUS43 KGRR 311100
TAFLAN
TAF
KLAN 311123Z 3112/0112 24008KT 6SM BR OVC004
     FM311400 VRB03KT 5SM BR BKN008
     FM311600 23005KT 6SM HZ BKN015
     FM311800 25008KT P6SM VCSH BKN035
     FM010000 VRB03KT P6SM SKC=



000
FTUS43 KGRR 311100
TAFGRR
TAF
KGRR 311123Z 3112/0112 24007KT 5SM BR OVC006
     FM311400 VRB03KT 5SM BR BKN015
     FM311600 23005KT 6SM HZ BKN025
     FM311800 25008KT P6SM BKN035
     FM010000 VRB03KT P6SM SKC=



000
FTUS43 KGRR 311100
TAFJXN
TAF
KJXN 311123Z 3112/0112 25004KT P6SM SKC
     FM311400 VRB03KT 5SM BR BKN008
     FM311600 23005KT 6SM HZ BKN015
     FM311800 25008KT P6SM VCSH BKN035
     FM010000 VRB03KT P6SM SKC=



000
FTUS43 KGRR 311100
TAFMKG
TAF
KMKG 311123Z 3112/0112 00000KT P6SM FEW045 BKN060
     FM311400 VRB03KT 5SM BR BKN015
     FM311600 23005KT 6SM HZ BKN025
     FM311800 25008KT P6SM BKN035
     FM010000 VRB03KT P6SM SKC=



000
FTUS43 KGRR 311100 AAC
TAFMKG
TAF AMD
KMKG 311110Z 3111/0106 00000KT P6SM FEW050 BKN070
     FM311300 VRB03KT 4SM BR OVC005
     FM311400 VRB03KT 5SM BR BKN015
     FM311600 23005KT 6SM HZ BKN025
     FM311800 25008KT P6SM BKN035
     FM010000 18005KT P6SM SKC=



000
FTUS43 KGRR 311000 AAA
TAFJXN
TAF AMD
KJXN 311018Z 3110/0106 25004KT P6SM SCT014
     FM311200 VRB03KT 3SM BR OVC002
     FM311400 VRB03KT 5SM BR BKN008
     FM311600 23005KT 6SM HZ BKN015
     FM311800 25008KT P6SM VCSH BKN035
     FM010000 VRB03KT P6SM SKC=



000
FTUS43 KGRR 311000 AAD
TAFLAN
TAF AMD
KLAN 311018Z 3110/0106 23008KT 6SM BR OVC004
     FM311200 VRB03KT 4SM BR OVC002
     FM311400 VRB03KT 5SM BR BKN008
     FM311600 23005KT 6SM HZ BKN015
     FM311800 25008KT P6SM VCSH BKN035
     FM010000 VRB03KT P6SM SKC=



000
FTUS43 KGRR 311000 AAE
TAFAZO
TAF AMD
KAZO 311017Z 3110/0106 22006KT P6SM SCT050
     FM311200 VRB03KT 5SM BR BKN008
     FM311600 23005KT 6SM HZ BKN015
     FM311800 25008KT P6SM VCSH BKN035
     FM010000 VRB03KT P6SM SKC=



000
FTUS43 KGRR 311000 AAC
TAFBTL
TAF AMD
KBTL 311015Z 3110/0106 22008KT P6SM FEW005
     FM311200 VRB03KT 4SM BR OVC004
     FM311400 VRB03KT 5SM BR BKN008
     FM311600 23005KT 6SM HZ BKN015
     FM311800 25008KT P6SM VCSH BKN035
     FM010000 VRB03KT P6SM SKC=



000
FTUS43 KGRR 311000 AAB
TAFMKG
TAF AMD
KMKG 311013Z 3110/0106 00000KT P6SM FEW050 BKN070
     FM311200 VRB03KT 4SM BR OVC005
     FM311400 VRB03KT 5SM BR BKN015
     FM311600 23005KT 6SM HZ BKN025
     FM311800 25008KT P6SM BKN035
     FM010000 VRB03KT P6SM SKC=



000
FTUS43 KGRR 310900 AAC
TAFLAN
TAF AMD
KLAN 310924Z 3109/0106 23006KT P6SM OVC004
     FM311000 22003KT 4SM BR BKN004
     FM311100 VRB03KT 2SM BR OVC002
     FM311400 VRB03KT 5SM BR BKN008
     FM311600 23005KT 6SM HZ BKN015
     FM311800 25008KT P6SM VCSH BKN035
     FM010000 VRB03KT P6SM SKC=



000
FTUS43 KGRR 310900 AAB
TAFBTL
TAF AMD
KBTL 310924Z 3109/0106 22007KT P6SM SKC
     FM311000 22003KT 4SM BR BKN004
     FM311100 VRB03KT 2SM BR OVC002
     FM311400 VRB03KT 5SM BR BKN008
     FM311600 23005KT 6SM HZ BKN015
     FM311800 25008KT P6SM VCSH BKN035
     FM010000 VRB03KT P6SM SKC=



000
FTUS43 KGRR 310800 AAB
TAFLAN
TAF AMD
KLAN 310857Z 3109/0106 24005KT P6SM BKN006
     FM311000 22003KT 4SM BR BKN004
     FM311100 VRB03KT 2SM BR OVC002
     FM311400 VRB03KT 5SM BR BKN008
     FM311600 23005KT 6SM HZ BKN015
     FM311800 25008KT P6SM VCSH BKN035
     FM010000 VRB03KT P6SM SKC=



000
FTUS43 KGRR 310800 AAD
TAFGRR
TAF AMD
KGRR 310857Z 3109/0106 21006KT 3SM BR BKN003
     FM311000 VRB03KT 2SM BR OVC005
     FM311400 VRB03KT 5SM BR BKN015
     FM311600 23005KT 6SM HZ BKN025
     FM311800 25008KT P6SM BKN035
     FM010000 VRB03KT P6SM SKC=



000
FTUS43 KGRR 310800 AAD
TAFAZO
TAF AMD
KAZO 310856Z 3109/0106 22007KT 6SM BR SKC
     FM311000 VRB03KT 2SM BR OVC004
     FM311400 VRB03KT 5SM BR BKN008
     FM311600 23005KT 6SM HZ BKN015
     FM311800 25008KT P6SM VCSH BKN035
     FM010000 VRB03KT P6SM SKC=



000
FTUS43 KGRR 310800 AAC
TAFGRR
TAF AMD
KGRR 310847Z 3109/0106 VRB03KT 4SM BR FEW005
     FM311000 VRB03KT 2SM BR OVC005
     FM311400 VRB03KT 5SM BR BKN015
     FM311600 23005KT 6SM HZ BKN025
     FM311800 25008KT P6SM BKN035
     FM010000 VRB03KT P6SM SKC=



000
FTUS43 KGRR 310800 AAC
TAFAZO
TAF AMD
KAZO 310820Z 3108/0106 22003KT 4SM BR BKN005
     FM311000 VRB03KT 2SM BR OVC004
     FM311400 VRB03KT 5SM BR BKN008
     FM311600 23005KT 6SM HZ BKN015
     FM311800 25008KT P6SM VCSH BKN035
     FM010000 VRB03KT P6SM SKC=



000
FTUS43 KGRR 310800 AAB
TAFAZO
TAF AMD
KAZO 310809Z 3108/0106 18005KT 4SM BR FEW008
     FM310900 22003KT 4SM BR BKN008
     FM311000 VRB03KT 2SM BR OVC004
     FM311400 VRB03KT 5SM BR BKN008
     FM311600 23005KT 6SM HZ BKN015
     FM311800 25008KT P6SM VCSH BKN035
     FM010000 VRB03KT P6SM SKC=



000
FTUS43 KGRR 310800 AAA
TAFMKG
TAF AMD
KMKG 310808Z 3108/0106 VRB03KT P6SM FEW045
     FM311000 VRB03KT 5SM BR BKN015
     FM311100 VRB03KT 2SM BR OVC010
     FM311400 VRB03KT 5SM BR BKN015
     FM311600 23005KT 6SM HZ BKN025
     FM311800 25008KT P6SM BKN035
     FM010000 VRB03KT P6SM SKC=



000
FTUS43 KGRR 310800 AAB
TAFGRR
TAF AMD
KGRR 310808Z 3108/0106 21006KT P6SM SCT025
     FM310830 VRB03KT 5SM BR BKN015
     FM311100 VRB03KT 2SM BR OVC010
     FM311400 VRB03KT 5SM BR BKN015
     FM311600 23005KT 6SM HZ BKN025
     FM311800 25008KT P6SM BKN035
     FM010000 VRB03KT P6SM SKC=



000
FTUS43 KGRR 310800 AAA
TAFLAN
TAF AMD
KLAN 310807Z 3108/0106 22006KT P6SM FEW008 SCT035
     FM310900 22003KT 6SM HZ BKN008
     FM311000 22003KT 4SM BR BKN004
     FM311100 VRB03KT 2SM BR OVC002
     FM311400 VRB03KT 5SM BR BKN008
     FM311600 23005KT 6SM HZ BKN015
     FM311800 25008KT P6SM VCSH BKN035
     FM010000 VRB03KT P6SM SKC=



000
FTUS43 KGRR 310700 AAA
TAFBTL
TAF AMD
KBTL 310708Z 3107/0106 20006KT P6SM FEW008
     FM310900 22003KT 6SM HZ BKN008
     FM311000 22003KT 4SM BR BKN004
     FM311100 VRB03KT 2SM BR OVC002
     FM311400 VRB03KT 5SM BR BKN008
     FM311600 23005KT 6SM HZ BKN015
     FM311800 25008KT P6SM VCSH BKN035
     FM010000 VRB03KT P6SM SKC=



000
FTUS43 KGRR 310700 AAA
TAFAZO
TAF AMD
KAZO 310708Z 3107/0106 18005KT P6SM FEW008
     FM310900 22003KT 4SM BR BKN008
     FM311000 VRB03KT 2SM BR OVC004
     FM311400 VRB03KT 5SM BR BKN008
     FM311600 23005KT 6SM HZ BKN015
     FM311800 25008KT P6SM VCSH BKN035
     FM010000 VRB03KT P6SM SKC=



000
FTUS43 KGRR 310600 AAA
TAFGRR
TAF AMD
KGRR 310625Z 3106/0106 21006KT P6SM BKN025
     FM310800 VRB03KT 5SM BR BKN015
     FM311100 VRB03KT 2SM BR OVC010
     FM311400 VRB03KT 5SM BR BKN015
     FM311600 23005KT 6SM HZ BKN025
     FM311800 25008KT P6SM BKN035
     FM010000 VRB03KT P6SM SKC=



000
FTUS43 KGRR 310500
TAFGRR
TAF
KGRR 310540Z 3106/0106 24007KT P6SM BKN035
     FM310900 24004KT 5SM BR BKN015
     FM311100 VRB03KT 2SM BR OVC010
     FM311400 VRB03KT 5SM BR BKN015
     FM311600 23005KT 6SM HZ BKN025
     FM311800 25008KT P6SM BKN035
     FM010000 VRB03KT P6SM SKC=



000
FTUS43 KGRR 310500
TAFBTL
TAF
KBTL 310540Z 3106/0106 20006KT P6SM FEW008
     FM310700 22003KT 6SM HZ BKN008
     FM310900 22003KT 4SM BR BKN004
     FM311000 VRB03KT 2SM BR OVC002
     FM311400 VRB03KT 5SM BR BKN008
     FM311600 23005KT 6SM HZ BKN015
     FM311800 25008KT P6SM VCSH BKN035
     FM010000 VRB03KT P6SM SKC=



000
FTUS43 KGRR 310500
TAFLAN
TAF
KLAN 310540Z 3106/0106 20006KT P6SM FEW008
     FM310800 22003KT 6SM HZ BKN008
     FM311000 22003KT 4SM BR BKN004
     FM311100 VRB03KT 2SM BR OVC002
     FM311400 VRB03KT 5SM BR BKN008
     FM311600 23005KT 6SM HZ BKN015
     FM311800 25008KT P6SM VCSH BKN035
     FM010000 VRB03KT P6SM SKC=



000
FTUS43 KGRR 310500
TAFAZO
TAF
KAZO 310540Z 3106/0106 18005KT P6SM BKN008
     FM310800 22003KT 4SM BR BKN004
     FM311000 VRB03KT 2SM BR OVC002
     FM311400 VRB03KT 5SM BR BKN008
     FM311600 23005KT 6SM HZ BKN015
     FM311800 25008KT P6SM VCSH BKN035
     FM010000 VRB03KT P6SM SKC=



000
FTUS43 KGRR 310500
TAFMKG
TAF
KMKG 310540Z 3106/0106 24005KT P6SM BKN045
     FM310800 24004KT 5SM BR BKN015
     FM311000 VRB03KT 2SM BR OVC010
     FM311400 VRB03KT 5SM BR BKN015
     FM311600 23005KT 6SM HZ BKN025
     FM311800 25008KT P6SM BKN035
     FM010000 VRB03KT P6SM SKC=



000
FTUS43 KGRR 310500
TAFJXN
TAF
KJXN 310540Z 3106/0106 22006KT P6SM -SHRA VCTS SCT040CB BKN060
      TEMPO 3106/3107 4SM -TSRA BR SCT025CB OVC040
     FM310900 22003KT 6SM HZ BKN008
     FM311000 22003KT 4SM BR BKN004
     FM311100 VRB03KT 1SM BR OVC002
     FM311400 VRB03KT 5SM BR BKN008
     FM311600 23005KT 6SM HZ BKN015
     FM311800 25008KT P6SM VCSH BKN035
     FM010000 VRB03KT P6SM SKC=



000
FTUS43 KGRR 310400 AAC
TAFJXN
TAF AMD
KJXN 310416Z 3104/3124 23012KT 6SM -TSRA BR OVC040CB
     FM310500 22008KT 6SM HZ SCT040
     FM310800 23005KT 5SM BR BKN025
     FM311000 24004KT 2SM BR OVC010
     FM311500 25006KT 5SM BR BKN020
     FM311800 26007KT P6SM BKN035=



000
FTUS43 KGRR 310300 AAB
TAFAZO
TAF AMD
KAZO 310327Z 3103/3124 22006KT P6SM FEW025
     FM310700 24005KT 5SM BR BKN025
     FM311000 25004KT 2SM BR OVC010
     FM311500 25006KT 5SM BR BKN020
     FM311800 26007KT P6SM BKN035=



000
FTUS43 KGRR 310300 AAB
TAFJXN
TAF AMD
KJXN 310326Z 3103/3124 23012KT 2SM -TSRA BR OVC025CB
     FM310400 22008KT 6SM HZ OVC040
     FM310800 23005KT 5SM BR BKN025
     FM311000 24004KT 2SM BR OVC010
     FM311500 25006KT 5SM BR BKN020
     FM311800 26007KT P6SM BKN035=



000
FTUS43 KGRR 310200 AAA
TAFJXN
TAF AMD
KJXN 310220Z 3102/3124 23006KT 6SM -SHRA OVC025
     FM310300 23006KT 5SM -TSRA BR OVC025CB
     FM310400 22008KT 6SM HZ OVC040
     FM310800 23005KT 5SM BR BKN025
     FM311000 24004KT 2SM BR OVC010
     FM311500 25006KT 5SM BR BKN020
     FM311800 26007KT P6SM BKN035=



000
FTUS43 KGRR 310200 AAA
TAFLAN
TAF AMD
KLAN 310213Z 3102/3124 23008KT P6SM BKN100
     FM310800 23005KT 5SM BR BKN025
     FM311000 24004KT 2SM BR OVC010
     FM311500 25006KT 5SM BR BKN020
     FM311800 26007KT P6SM BKN035=



000
FTUS43 KGRR 310200 AAA
TAFBTL
TAF AMD
KBTL 310213Z 3102/3124 22007KT P6SM BKN080
     FM310800 23005KT 5SM BR BKN025
     FM311000 24004KT 2SM BR OVC010
     FM311500 25006KT 5SM BR BKN020
     FM311800 26007KT P6SM BKN035=



000
FTUS43 KGRR 310200 AAA
TAFAZO
TAF AMD
KAZO 310211Z 3102/3124 22006KT 5SM BR SCT025
     FM310700 24005KT 5SM BR BKN025
     FM311000 25004KT 2SM BR OVC010
     FM311500 25006KT 5SM BR BKN020
     FM311800 26007KT P6SM BKN035=



000
FTUS43 KGRR 302300
TAFAZO
TAF
KAZO 302328Z 3100/3124 24012G20KT 5SM -TSRA BR OVC035CB
     FM310200 23008KT P6SM BKN050
     FM310700 24005KT 5SM BR BKN025
     FM311000 25004KT 2SM BR OVC010
     FM311500 25006KT 5SM BR BKN020
     FM311800 26007KT P6SM BKN035=



000
FTUS43 KGRR 302300
TAFJXN
TAF
KJXN 302328Z 3100/3124 22012KT P6SM VCTS BKN040CB
     FM310130 24011G18KT 5SM -TSRA BR OVC035CB
     FM310300 22008KT P6SM OVC040
     FM310800 23005KT 5SM BR BKN025
     FM311000 24004KT 2SM BR OVC010
     FM311500 25006KT 5SM BR BKN020
     FM311800 26007KT P6SM BKN035=



000
FTUS43 KGRR 302300
TAFGRR
TAF
KGRR 302328Z 3100/3124 24012G20KT P6SM BKN045
     FM310200 23008KT P6SM BKN050
     FM310700 24005KT 5SM BR BKN025
     FM311000 25004KT 2SM BR OVC010
     FM311500 25006KT 5SM BR BKN020
     FM311800 28008KT P6SM BKN035=



000
FTUS43 KGRR 302300
TAFLAN
TAF
KLAN 302328Z 3100/3124 22012G20KT P6SM VCTS BKN040CB
     FM310100 24011G18KT 5SM -TSRA BR OVC035CB
     FM310230 22008KT P6SM OVC040
     FM310800 23005KT 5SM BR BKN025
     FM311000 24004KT 2SM BR OVC010
     FM311500 25006KT 5SM BR BKN020
     FM311800 26007KT P6SM BKN035=



000
FTUS43 KGRR 302300
TAFMKG
TAF
KMKG 302328Z 3100/3124 23010G18KT P6SM BKN045
     FM310200 24008KT P6SM BKN050
     FM310700 25005KT 5SM BR BKN025
     FM311000 27004KT 2SM BR OVC010
     FM311500 23006KT 5SM BR BKN020
     FM311800 26008KT P6SM BKN035=



000
FTUS43 KGRR 302300
TAFBTL
TAF
KBTL 302328Z 3100/3124 22012G20KT P6SM VCTS BKN040CB
     FM310100 24011G18KT 5SM -TSRA BR OVC035CB
     FM310230 22008KT P6SM OVC040
     FM310800 23005KT 5SM BR BKN025
     FM311000 24004KT 2SM BR OVC010
     FM311500 25006KT 5SM BR BKN020
     FM311800 26007KT P6SM BKN035=



000
FTUS43 KGRR 302100 AAA
TAFGRR
TAF AMD
KGRR 302112Z 3021/3118 21012G20KT P6SM VCTS SCT025CB BKN040
     FM310030 22007KT 3SM BR VCTS OVC025CB
     FM310400 22005KT 3SM BR OVC015
     FM311100 24004KT 5SM BR BKN015
     FM311700 24007KT P6SM BKN040=



000
FTUS43 KGRR 302000 AAA
TAFMKG
TAF AMD
KMKG 302029Z 3020/3118 21015G22KT P6SM VCTS BKN035CB
     FM310100 22005KT 5SM BR OVC025
     FM310500 22006KT 3SM BR OVC015
     FM310800 22004KT 5SM BR BKN015=



000
FTUS43 KGRR 301700
TAFAZO
TAF
KAZO 301735Z 3018/3118 19013G21KT P6SM VCTS SCT025CB BKN040
      TEMPO 3018/3019 BKN025CB
     FM302245 22011G17KT 5SM -TSRA BR OVC025CB
     FM310200 22005KT 3SM BR VCTS OVC015CB
     FM310600 22004KT 2SM BR OVC008
     FM311200 23004KT 3SM BR OVC015
     FM311600 24006KT 5SM BR BKN025=



000
FTUS43 KGRR 301700
TAFLAN
TAF
KLAN 301735Z 3018/3118 21013G21KT P6SM VCTS SCT025CB BKN040
      TEMPO 3018/3020 BKN025CB
     FM302100 22014G22KT 5SM -TSRA OVC040CB
     FM302315 22012KT 5SM -TSRA BR OVC025CB
     FM310300 22006KT 3SM BR OVC015
     FM311100 24005KT 2SM BR BKN015
     FM311500 25006KT P6SM BKN025=



000
FTUS43 KGRR 301700
TAFGRR
TAF
KGRR 301735Z 3018/3118 21012G20KT P6SM VCTS SCT015CB BKN040
      TEMPO 3018/3019 BKN015CB
     FM302100 22013G20KT 5SM -TSRA BR OVC025CB
     FM310030 22007KT 3SM BR VCTS OVC025CB
     FM310400 22005KT 3SM BR OVC015
     FM311100 24004KT 5SM BR BKN015
     FM311700 24007KT P6SM BKN040=



000
FTUS43 KGRR 301700
TAFJXN
TAF
KJXN 301735Z 3018/3118 21011G19KT P6SM VCTS SCT025CB BKN040
      TEMPO 3018/3019 BKN025CB
     FM302315 22007KT 5SM -TSRA OVC040CB
     FM310200 22007KT 5SM BR VCTS OVC025CB
     FM310500 22005KT 3SM BR OVC015
     FM311400 24006KT 5SM BR BKN015
     FM311700 25006KT P6SM BKN040=



000
FTUS43 KGRR 301700
TAFMKG
TAF
KMKG 301735Z 3018/3118 20014G24KT P6SM VCTS SCT025CB BKN040
      TEMPO 3018/3020 BKN025CB
     FM302000 21011G18KT P6SM VCTS BKN025CB
     FM310100 22005KT 5SM BR OVC025
     FM310500 22006KT 3SM BR OVC015
     FM310800 22004KT 5SM BR BKN015=



000
FTUS43 KGRR 301700
TAFBTL
TAF
KBTL 301735Z 3018/3118 20014G22KT P6SM VCTS SCT015CB BKN040
      TEMPO 3018/3019 BKN015CB
     FM302245 22012G18KT 5SM -TSRA BR OVC025CB
     FM310200 22007KT 3SM BR VCTS OVC025CB
     FM310500 22006KT 3SM BR OVC007
     FM311500 24006KT 5SM BR BKN025=



000
FTUS43 KGRR 301600 AAA
TAFJXN
TAF AMD
KJXN 301609Z 3016/3112 21008G16KT P6SM VCTS SCT025CB BKN050
     FM310000 23011KT P6SM BKN035
     FM310500 23007KT 4SM BR OVC015
     FM310800 23005KT 2SM BR OVC003
     FM311000 23004KT 1 1/2SM BR OVC003=



000
FTUS43 KGRR 301600 AAB
TAFBTL
TAF AMD
KBTL 301607Z 3016/3112 20014G20KT P6SM BKN015
      TEMPO 3016/3019 SCT015 BKN050
     FM301900 22013G23KT P6SM VCTS SCT025CB BKN050
     FM310000 23011KT P6SM BKN035
     FM310500 23007KT 4SM BR OVC015
     FM310800 23005KT 2SM BR OVC003
     FM311000 23004KT 1 1/2SM BR OVC003=



000
FTUS43 KGRR 301600 AAD
TAFGRR
TAF AMD
KGRR 301605Z 3016/3112 20011KT P6SM SCT015 BKN035
      TEMPO 3016/3018 BKN015
     FM301800 22014G24KT P6SM VCTS SCT025CB BKN050
     FM310000 23011KT P6SM BKN035
     FM310500 23007KT 4SM BR OVC015
     FM310800 23005KT 2SM BR OVC003
     FM311000 23004KT 1 1/2SM BR OVC003=



000
FTUS43 KGRR 301500 AAB
TAFAZO
TAF AMD
KAZO 301545Z 3016/3112 20011KT P6SM BKN015
      TEMPO 3016/3018 SCT015 BKN040
     FM301800 22012G22KT P6SM VCTS SCT025CB BKN050
     FM310000 23011KT P6SM BKN035
     FM310500 23007KT 4SM BR OVC015
     FM310800 23005KT 2SM BR OVC003
     FM311000 23004KT 1 1/2SM BR OVC003=



000
FTUS43 KGRR 301400 AAC
TAFGRR
TAF AMD
KGRR 301441Z 3015/3112 20011KT P6SM SCT015 BKN030
      TEMPO 3015/3016 BKN015
     FM301800 22014G24KT P6SM VCTS SCT025CB BKN050
     FM310000 23011KT P6SM BKN035
     FM310500 23007KT 4SM BR OVC015
     FM310800 23005KT 2SM BR OVC003
     FM311000 23004KT 1 1/2SM BR OVC003=



000
FTUS43 KGRR 301400 AAB
TAFMKG
TAF AMD
KMKG 301438Z 3015/3112 19017G23KT P6SM SCT015 BKN120
      TEMPO 3015/3017 BKN015
     FM301800 20012G18KT P6SM VCTS SCT025CB BKN040
     FM302200 22012KT P6SM BKN035
     FM310300 23006KT P6SM BKN025
     FM310600 22005KT 4SM BR BKN007
     FM311000 22004KT 1 1/2SM BR OVC001=



000
FTUS43 KGRR 301300 AAB
TAFLAN
TAF AMD
KLAN 301346Z 3014/3112 19011KT P6SM -SHRA OVC070
     FM301800 22015G25KT P6SM VCTS SCT025CB BKN050
     FM310000 23011KT P6SM BKN035
     FM310500 23007KT 4SM BR OVC015
     FM310800 23005KT 2SM BR OVC003
     FM311000 23004KT 1 1/2SM BR OVC003=



000
FTUS43 KGRR 301300 AAB
TAFGRR
TAF AMD
KGRR 301343Z 3014/3112 19011KT P6SM BKN100
     FM301600 22015G25KT P6SM VCTS SCT025CB BKN050
     FM310000 23011KT P6SM BKN035
     FM310500 23007KT 4SM BR OVC015
     FM310800 23005KT 2SM BR OVC003
     FM311000 23004KT 1 1/2SM BR OVC003=



000
FTUS43 KGRR 301200 AAA
TAFMKG
TAF AMD
KMKG 301256Z 3013/3112 20015G25KT P6SM SCT040 BKN070
      TEMPO 3013/3015 BKN020
     FM301800 21014KT P6SM VCTS SCT025CB BKN040
     FM302200 22012KT P6SM BKN035
     FM310300 23006KT P6SM BKN025
     FM310600 22005KT 4SM BR BKN007
     FM311000 22004KT 1 1/2SM BR OVC001=



000
FTUS43 KGRR 301200 AAA
TAFAZO
TAF AMD
KAZO 301225Z 3012/3112 19009KT 4SM SHRA BR VCTS BKN050CB OVC110
     FM301310 20012KT P6SM BKN050
     FM301600 21016G26KT P6SM VCTS SCT025CB BKN050
     FM310000 23011KT P6SM BKN035
     FM310500 23007KT 4SM BR OVC015
     FM310800 23005KT 2SM BR OVC003
     FM311000 23004KT 1 1/2SM BR OVC003=



000
FTUS43 KGRR 301200 AAA
TAFBTL
TAF AMD
KBTL 301225Z 3012/3112 18010KT P6SM VCSH SCT050 BKN120
      TEMPO 3012/3013 5SM SHRA
     FM301600 21016G26KT P6SM VCTS SCT025CB BKN050
     FM310000 23011KT P6SM BKN035
     FM310500 23007KT 4SM BR OVC015
     FM310800 23005KT 2SM BR OVC003
     FM311000 23004KT 1 1/2SM BR OVC003=



000
FTUS43 KGRR 301200 AAA
TAFLAN
TAF AMD
KLAN 301215Z 3012/3112 16009KT P6SM VCSH SCT050 BKN120
     FM301255 18012KT 2SM SHRA BR VCTS OVC035CB
     FM301400 19009KT 5SM BR VCSH SCT050 BKN120
     FM301600 21016G26KT P6SM VCTS SCT025CB BKN050
     FM310000 23011KT P6SM BKN035
     FM310500 23007KT 4SM BR OVC015
     FM310800 23005KT 2SM BR OVC003
     FM311000 23004KT 1 1/2SM BR OVC003=



000
FTUS43 KGRR 301200 AAA
TAFGRR
TAF AMD
KGRR 301212Z 3012/3112 19012KT 2SM SHRA BR VCTS OVC035CB
     FM301300 21016G26KT P6SM VCTS SCT025CB BKN050
     FM310000 23011KT P6SM BKN035
     FM310500 23007KT 4SM BR OVC015
     FM310800 23005KT 2SM BR OVC003
     FM311000 23004KT 1 1/2SM BR OVC003=



000
FTUS43 KGRR 301100
TAFBTL
TAF
KBTL 301130Z 3012/3112 18010KT P6SM VCSH SCT050 BKN120
     FM301600 21016G26KT P6SM VCTS SCT025CB BKN050
     FM310000 23011KT P6SM BKN035
     FM310500 23007KT 4SM BR OVC015
     FM310800 23005KT 2SM BR OVC003
     FM311000 23004KT 1 1/2SM BR OVC003=



000
FTUS43 KGRR 301100
TAFJXN
TAF
KJXN 301130Z 3012/3112 19006KT P6SM VCSH SCT050 BKN120
     FM301600 21016G26KT P6SM VCTS SCT025CB BKN050
     FM310000 23011KT P6SM BKN035
     FM310500 23007KT 4SM BR OVC015
     FM310800 23005KT 2SM BR OVC003
     FM311000 23004KT 1 1/2SM BR OVC003=



000
FTUS43 KGRR 301100
TAFLAN
TAF
KLAN 301130Z 3012/3112 16009KT P6SM VCSH SCT050 BKN120
     FM301600 21016G26KT P6SM VCTS SCT025CB BKN050
     FM310000 23011KT P6SM BKN035
     FM310500 23007KT 4SM BR OVC015
     FM310800 23005KT 2SM BR OVC003
     FM311000 23004KT 1 1/2SM BR OVC003=



000
FTUS43 KGRR 301100
TAFMKG
TAF
KMKG 301130Z 3012/3112 19015G21KT P6SM VCSH SCT060 OVC090
     FM301300 20015G25KT P6SM SCT040 BKN070
     FM301800 21014KT P6SM VCTS SCT025CB BKN040
     FM302200 22012KT P6SM BKN035
     FM310300 23006KT P6SM BKN025
     FM310600 22005KT 4SM BR BKN007
     FM311000 22004KT 1 1/2SM BR OVC001=



000
FTUS43 KGRR 301100
TAFAZO
TAF
KAZO 301130Z 3012/3112 18009KT P6SM VCSH SCT050 OVC110
     FM301600 21016G26KT P6SM VCTS SCT025CB BKN050
     FM310000 23011KT P6SM BKN035
     FM310500 23007KT 4SM BR OVC015
     FM310800 23005KT 2SM BR OVC003
     FM311000 23004KT 1 1/2SM BR OVC003=



000
FTUS43 KGRR 301100
TAFGRR
TAF
KGRR 301130Z 3012/3112 19012KT P6SM VCSH FEW060 BKN100 OVC200
     FM301600 21016G26KT P6SM VCTS SCT025CB BKN050
     FM310000 23011KT P6SM BKN035
     FM310500 23007KT 4SM BR OVC015
     FM310800 23005KT 2SM BR OVC003
     FM311000 23004KT 1 1/2SM BR OVC003=



000
FTUS43 KGRR 300500
TAFBTL
TAF
KBTL 300540Z 3006/3106 20008KT P6SM VCSH SCT060 BKN100
      TEMPO 3010/3014 4SM -SHRA BR BKN040
     FM301400 20014KT P6SM SCT040 BKN070
     FM301800 22014KT P6SM VCTS SCT025CB BKN040
     FM310100 24006KT P6SM BKN025=



000
FTUS43 KGRR 300500
TAFJXN
TAF
KJXN 300540Z 3006/3106 14010KT P6SM VCSH SCT060 BKN100
      TEMPO 3011/3015 4SM -SHRA BR BKN040
     FM301500 20014KT P6SM SCT040 BKN070
     FM301900 22014KT P6SM VCTS SCT025CB BKN040
     FM310100 24006KT P6SM BKN025=



000
FTUS43 KGRR 300500
TAFGRR
TAF
KGRR 300540Z 3006/3106 18011KT P6SM VCSH SCT060 BKN090
      TEMPO 3010/3014 4SM -SHRA BR BKN040
     FM301400 20015KT P6SM SCT040 BKN070
     FM301800 22014KT P6SM VCTS SCT025CB BKN040
     FM310100 24006KT P6SM BKN025=



000
FTUS43 KGRR 300500
TAFAZO
TAF
KAZO 300540Z 3006/3106 16008KT P6SM VCSH SCT060 BKN100
      TEMPO 3010/3014 4SM -SHRA BR BKN040
     FM301400 20014KT P6SM SCT040 BKN070
     FM301800 22014KT P6SM VCTS SCT025CB BKN040
     FM310100 24006KT P6SM BKN025=



000
FTUS43 KGRR 300500
TAFLAN
TAF
KLAN 300540Z 3006/3106 16010KT P6SM VCSH SCT060 BKN100
      TEMPO 3011/3015 4SM -SHRA BR BKN040
     FM301500 20014KT P6SM SCT040 BKN070
     FM301900 22014KT P6SM VCTS SCT025CB BKN040
     FM310100 24006KT P6SM BKN025=



000
FTUS43 KGRR 300500
TAFMKG
TAF
KMKG 300540Z 3006/3106 18011KT P6SM VCSH SCT060 BKN090
      TEMPO 3009/3013 4SM -SHRA BR BKN040
     FM301300 20015KT P6SM SCT040 BKN070
     FM301800 21014KT P6SM VCTS SCT025CB BKN040
     FM310100 23006KT P6SM BKN025=



000
FTUS43 KGRR 300400 AAA
TAFGRR
TAF AMD
KGRR 300417Z 3004/3024 17008KT P6SM VCSH SCT060 BKN120
      TEMPO 3005/3006 24015KT 4SM -SHRA BR BKN040
     FM301000 17011KT P6SM VCTS BKN070CB
     FM301200 20012G21KT P6SM BKN035
     FM301800 21012G23KT P6SM VCTS BKN040CB=



000
FTUS43 KGRR 292300
TAFGRR
TAF
KGRR 292339Z 3000/3024 15008KT P6SM VCSH BKN120
     FM300600 17011KT P6SM VCTS BKN070CB
     FM301200 20012G21KT P6SM BKN035
     FM301800 21012G23KT P6SM VCTS BKN040CB=



000
FTUS43 KGRR 292300
TAFJXN
TAF
KJXN 292339Z 3000/3024 15008KT P6SM VCSH BKN120
     FM300600 18010KT P6SM VCTS BKN070CB
     FM301200 20012G21KT P6SM BKN035
     FM301800 21012G23KT P6SM VCTS BKN040CB=



000
FTUS43 KGRR 292300
TAFMKG
TAF
KMKG 292339Z 3000/3024 15008KT P6SM VCSH BKN120
     FM300600 17011KT P6SM VCTS BKN070CB
     FM301200 20012G20KT P6SM BKN035
     FM301800 21012G22KT P6SM VCTS BKN040CB=



000
FTUS43 KGRR 292300
TAFAZO
TAF
KAZO 292339Z 3000/3024 16008KT P6SM VCSH BKN090
     FM300600 18010KT P6SM VCTS BKN070CB
     FM301200 20012G21KT P6SM BKN035
     FM301800 21012G23KT P6SM VCTS BKN040CB=



000
FTUS43 KGRR 292300
TAFBTL
TAF
KBTL 292339Z 3000/3024 16008KT P6SM VCSH BKN090
     FM300600 18010KT P6SM VCTS BKN070CB
     FM301200 20012G21KT P6SM BKN035
     FM301800 21012G23KT P6SM VCTS BKN040CB=



000
FTUS43 KGRR 292300
TAFLAN
TAF
KLAN 292339Z 3000/3024 16008KT P6SM VCSH BKN120
     FM300600 18010KT P6SM VCTS BKN070CB
     FM301200 20012G21KT P6SM BKN035
     FM301800 21012G23KT P6SM VCTS BKN040CB=



    US Dept of Commerce
    National Oceanic and Atmospheric Administration
    National Weather Service
    1325 East West Highway
    Silver Spring, MD 20910
    Page Author: NWS Internet Services Team
Disclaimer
Information Quality
Credits
Glossary
Privacy Policy
Freedom of Information Act (FOIA)
About Us
Career Opportunities